Jerez de la Frontera, Spain
Current Conditions -  °F | °C
As of 9:30 AM on Friday 24 Oct 2014 (Local Time) from LEJR Reporting Station
Clear Clear  
Wind Chill: 54°   Ceiling: Unl
Heat Index: 54°   Visibility: 6mi
Dew Point: 52°   Wind: 0mph
Humidity: 94%   Direction: NA
Pressure: 30"   Gusts: NA
Location:  36.69°N, 6.14°W
Report Text: LEJR 240730Z 00000KT CAVOK 12/11 Q1016
Loading
Personal Weather Stations






























Interactive Weather Map
Tropical Storm Tracking
New forecast layout! Learn more

10-Day Weather Forecast

Advertisements
Track Severe Weather on mobile